Pagina principale
METAR-TAF:

METAR-TAF

Aeroporti :

Aeroporto di Torino-Aeritalia

Torino, Italia

latitudine: 45-05-20N, longitudine: 007-36-20E, altezza: 288 m

Osservazione

Il bollettino è stato emesso 1 ora e 54 minuti fa, alle 16:50 UTC
Vento 3 kt da est/nord-est
Temperature 15°C
Umidità 72%
Pressione 1004 hPa
Visibilità 10 km o più
Nubi sparse ad un'altezza di 800 ft
Nuvoloso ad un'altezza di 1600 ft

METAR: LIMA 191650Z 06003KT 9999 SCT008 BKN016 15/10 Q1004

Ora: 20:44 (18:44 UTC)


TAF: mancante

Osservazioni e previsioni meteorologiche di più di 4000 aeroporti (messaggi METAR e TAF).

Le stazioni disponibili sono rappresentate dai dischi gialli e rossi sulla carta.

Puntare il mouse per vedere il nome della stazione.

Clicca sopra per visualizzare le osservazioni e previsioni meteorologiche.

Per cambiare la mappa : fare clic sui pulsanti verdi con una croce nera per ingrandire, il pulsante verde con un trattino per diminuire, o sulla freccia verde per le mappe adiacenti.


METAR-TAF: